Scroll down
FLIGHT INFORMATION
American Airlines

AAL1632

At Arrival Gate

KCLT
 KTPA
DATE: 2020-06-21
GATE:  -
GATE DEPARTURE: 19:13
TAKEOFF: 19:26
DATE: 2020-06-21
GATE:  -
LANDING: 20:35
GATE ARRIVAL: 20:40
FLIGHT DATA
Crew: 
Speed: 
477 kts
Altitude: 
36,004 ft
Stage Length: 
442.0 nm
Block Time: 
1.5 hrs
Flight Time: 
1.2 hrs
Fuel Used: 
8,528 lb
Cleared Route: 
TRACK DATA
50,000 ft 1,000 kts
AIRCRAFT INFO AND CUMULATIVE STATS
Aircraft Type: 
B738BW
Registration: 
SELCAL: 
CPBJ
MSN/LN: 
33323 / 4655
Operator: 
Total Flights: 
19
Total Block Time: 
35.3 hrs
Total Flight Time: 
29.8 hrs
Total Fuel Time: 
205,019 lb
DATALINK LOG | Newest first | Current as of: 2020-12-05 07:12:21
LABEL SEQUENCE CONTENT Dn/Up
QD421120:40 13.4▼ Dn
QC370820:35▼ Dn
2U3016KTPA 211953Z 27006KT 10SM FEW045TCU FEW300 32/21 A3005 RMK AO2 SLP176 TCU NE AND SE-S T03220206▲ Up
2S3203KTPA▼ Dn
2U1615KTPA 211953Z 27006KT 10SM FEW045TCU FEW300 32/21 A3005 RMK AO2 SLP176 TCU NE AND SE-S T03220206▲ Up
2S1751KTPA▼ Dn
UM204529CLEARED TO FL 360▲ Up
DM64519REQUEST FL 360 DUE TO WX▼ Dn
UM0 UM194428UNABLE. MAINTAIN ASSIGNED ALTITUDE▲ Up
DM64418REQUEST FL 360▼ Dn
DM484418JENDO 19:40z FL277 MAVRC 19:50z TEEEM 305 18.0 -29 257/21 RW19R 20:35z▼ Dn
QB280219:26▼ Dn
QA145019:13 22▼ Dn
2U1142KCLT 211852Z VRB03KT 10SM SCT050 SCT250 32/17 A3002 RMK AO2 SLP155 CB DSNT N AND NW T03220167▲ Up
2S1147KCLT▼ Dn
A30643CLEARED TO KTPA VIA BEAVY5 JENDO MAVRC TEEEM GEEYE JAYJA DADES6. SQUAWK 1054.▲ Up
B30642KORD KMSP AAL5289 N940NN ▼ Dn
A30450CLEARED TO KTPA VIA BEAVY5 JENDO MAVRC TEEEM GEEYE JAYJA DADES6. SQUAWK 7236.▲ Up
5U0324KTPA 212300Z 29009KT 10SM FEW040 SCT250 32/21 A3007▲ Up
2U0320KCLT 211752Z 25004KT 10SM SCT045 SCT250 31/18 A3004 RMK AO2 SLP163 T03110178 10317 20233 58004▲ Up
5S0447KTPA▼ Dn
2S0447KCLT▼ Dn
Q00340[LINK ACK]▲ Up
Q00340[LINK TEST]▼ Dn


AIRCRAFT HISTORY
FLIGHT DATE FLIGHT NO. ORIGIN DESTINATION CLEARED ROUTE BLOCK TIME FLIGHT TIME FUEL USED PILOT
2020-10-19AAL1476KSNA KPHX KSNA STREL TANGL SHIRR DANAH PIGGN WIILD FLWRZ BLCKD CSTWY CNERY BLH SCOLE SPINK SNRRA SWOON HYDRR GEELA AGGLA CHAVO LEMOE ZERLO RW25L1.2 hrs0.9 hrs6,421 lbMichael Collier
2020-10-17AAL486KPHX KSNA KPHX WULKO KEENS IZZZO CULTS HRRBR EMLLD LITNG WTTCH DRTHI CHURO BRCKK ROADE PHIYA DSNEE JWARD HUKEM RW20R1.2 hrs0.9 hrs6,134 lbMichael Collier
2020-10-16AAL791KLAS KPHX KLAS RBELL ROPPR CEASR HITME COWBY TENTS PANTD DUTEY MAIER BRUSR ANNTI ZILUB BRIEZ KUCOO JURAZ JAGAL RW261.1 hrs0.9 hrs5,673 lbMichael Collier
2020-09-08AAL1858KLAS KLAS KLAS RBELL ROPPR CEASR HITME COWBY TENTS PANTD DUTEY MAIER BRUSR ANNTI ZILUB BRIEZ KUCOO JURAZ JAGAL RW261.1 hrs0.7 hrs5,261 lbMichael Collier
2020-08-10AAL1809KSJC KLAS KSJC TECKY NTELL CABAB VIKSN KENNO ESSAA BTY KLAS1.6 hrs1.2 hrs9,094 lbKurt Kalbfleisch
2020-08-08AAL2735KMIA KSJC KMIA POTTR HITAG KAINS FORKK HOSFU BORLE WINCO CHRRI SRQ PIE ENDEW SWABE PLYER LEGGT SZW MAI CEW CATLN MEI MHZ KAMEN STAGE MIXIE BERKE EIC BYP PNH FTI TANER TBC CORKR CUNDY RENTT LAS JEDNA CENIT TUMBE ESSAA KENNO VIKSN CABAB NTELL TROXX SILCN VLLEY GUUYY WLSSN GSTEE KLIDE JENES RW30L5.5 hrs5.3 hrs34,987 lbGeorge M
2020-07-25AAL2195KBOS KMIA KBOS SSOXS BUZRD SEY HTO HTO15 RIFLE GEDIC EMJAY YAZUU ZIZZI WARNN SWL CEBEE WETRO DIWNB SEELO JENKS HOAGG BGDOG JORAY KMIA3 hrs2.7 hrs14,975 lbMike Dryden
2020-07-19AAL2384KORD KBOS KORD EBAKE WISMO POSTS PADDE SVM DKK PONCT KBOS2.2 hrs1.8 hrs11,081 lbMike Dryden
2020-07-17AAL2488KCLT KORD KCLT LACHN YNGUN BOBZY BRAYN REWET HALLS BAZOO BNA FTZ GROOV CASHN VINCA MAROC TRICH TRTLL HIHRY RINNO JORJO MONKZ TONIE HAZIL RW28C2.3 hrs1.8 hrs13,395 lbGeorge M
2020-07-12AAL2895KORD KCLT KORD EARND ELANR EMMLY ERECO IIU SKYWA NIZAM COMDY BLAYQ PHAYE JJENY FILPZ ADOWN INWAL JELNO CEDOX VALLL NIVSE RW36C1.8 hrs1.4 hrs10,882 lbGeorge M
2020-07-11AAL4520KSDF KORD KSDF RRROE STREP MZZ FRIDG WATSN MKITA ESSPO LAACY IZARD CABIJ MONKZ JORJO POSSM HAZIL RW28C1.2 hrs0.8 hrs7,094 lbGeorge M
2020-07-11AAL4076KORD KSDF KORD DENNT DARCY DREGS DONVE TTH SACKO CHERI IIU AWLEE RW35L1.1 hrs0.9 hrs6,702 lbGeorge M
2020-07-09AAL4505KMSP KORD KMSP PEDLN ZONVO DBQ JVL BULLZ TEDDY KRENA HAZIL RW28C1.4 hrs1.1 hrs8,042 lbGeorge M
2020-07-02AAL1282KORD KMSP KORD PMPKN NEATO DLLAN RONIC KAMMA BEERI ROBBY KBULL ZZING HENDR CMAAC KKILR HUGGI KRISP AFTYN CMMOE COZZZ HAMML RW12L1.2 hrs1 hrs6,903 lbGeorge M
2020-06-21AAL1408KTPA KORD 2.7 hrs2.4 hrs15,877 lbGeorge M
2020-06-21AAL1632KCLT KTPA 1.5 hrs1.2 hrs8,528 lbGeorge M
2020-06-21AAL5289KORD KCLT KORD EARND ELANR EMMLY ERECO IIU SKYWA NIZAM COMDY BLAYQ PHAYE JJENY FILPZ ADOWN INWAL JELNO CEDOX VALLL NIVSE RW36C1.9 hrs1.5 hrs10,595 lbGeorge M
2020-06-20AAL1463KDFW KORD KDFW SPERA JGIRL CORTS BIGGD CMORE BLECO ZEMMA TUL DOSOA MCI IRK LOAMY KEOKK DRAMS RYELY BDF BYLAW BENKY NEWRK AHSTN PETAH JORJO MONKZ TONIE HAZIL RW28C2.1 hrs1.8 hrs13,059 lbGeorge M
2020-06-19AAL519KBHM KDFW KBHM JOEYE IGB MLU YUYUN WAITT PLMER OUTLN VEEYO BEREE BELLS TACKE WARDZ DIETZ WHOOT HEDMN KDFW1.9 hrs1.6 hrs10,315 lbSteven Perry